Time;durP1;ratioP1;P1;durP2;ratioP2;P2;SDS_P1;SDS_P2;PMS_P1;PMS_P2;Temp;Humidity;BMP_temperature;BMP_pressure;BME280_temperature;BME280_humidity;BME280_pressure;Samples;Min_cycle;Max_cycle;Signal;HPM_P1;HPM_P2
2023/09/26 00:02:01;;;;;;;6.50;5.93;;;;;;;15.34;80.63;96266.75;5012763;28;20202;-86
2023/09/26 00:04:27;;;;;;;6.57;5.97;;;;;;;15.38;80.20;96262.78;5026484;28;20251;-86
2023/09/26 00:06:57;;;;;;;7.25;5.70;;;;;;;15.36;80.33;96264.75;5029586;28;20229;-85
2023/09/26 00:09:23;;;;;;;7.05;6.05;;;;;;;15.32;80.31;96258.34;5013472;28;20249;-86
2023/09/26 00:11:52;;;;;;;7.40;5.95;;;;;;;15.11;81.21;96276.53;5021534;28;20205;-85
2023/09/26 00:14:22;;;;;;;6.57;5.80;;;;;;;14.95;82.44;96298.34;5014673;28;20215;-86
2023/09/26 00:16:48;;;;;;;6.70;6.00;;;;;;;14.98;81.79;96286.81;5024389;28;20264;-86
2023/09/26 00:19:16;;;;;;;6.47;5.88;;;;;;;14.82;82.85;96303.41;5031233;28;20198;-86
2023/09/26 00:21:47;;;;;;;6.90;6.20;;;;;;;14.58;83.81;96322.72;5018197;28;20199;-87
2023/09/26 00:24:13;;;;;;;5.93;5.43;;;;;;;14.50;84.72;96328.81;5009925;28;20226;-87
2023/09/26 00:26:43;;;;;;;6.30;5.47;;;;;;;14.66;84.00;96324.38;5009769;28;20206;-86
2023/09/26 00:29:10;;;;;;;7.47;5.30;;;;;;;14.83;83.16;96297.22;5009773;28;20268;-86
2023/09/26 00:31:37;;;;;;;6.20;5.63;;;;;;;14.94;82.10;96281.19;5009444;28;20206;-85
2023/09/26 00:34:04;;;;;;;6.28;5.68;;;;;;;14.99;81.78;96275.44;5011809;28;20308;-86
2023/09/26 00:36:31;;;;;;;6.70;6.10;;;;;;;14.94;81.50;96259.66;5029418;28;20207;-86
2023/09/26 00:38:57;;;;;;;6.05;5.45;;;;;;;14.92;81.32;96265.00;5020687;28;20335;-86
2023/09/26 00:41:24;;;;;;;6.70;6.00;;;;;;;14.77;82.49;96282.44;5025094;28;20195;-86
2023/09/26 00:43:52;;;;;;;6.97;5.78;;;;;;;14.73;82.87;96288.97;5013678;28;20226;-85
2023/09/26 00:46:19;;;;;;;6.60;6.00;;;;;;;14.75;82.62;96287.81;5022155;28;20205;-86
2023/09/26 00:48:46;;;;;;;6.45;5.80;;;;;;;14.75;82.40;96281.81;5028646;28;20206;-86
2023/09/26 00:51:13;;;;;;;6.18;5.60;;;;;;;14.76;82.50;96291.19;5028765;28;20214;-85
2023/09/26 00:53:40;;;;;;;6.35;5.75;;;;;;;14.77;82.37;96275.47;5028237;28;20595;-86
2023/09/26 00:56:07;;;;;;;6.30;5.80;;;;;;;14.61;82.66;96287.88;5017012;28;20195;-85
2023/09/26 00:58:42;;;;;;;6.50;5.75;;;;;;;14.60;82.94;96278.47;5009423;28;20213;-86
2023/09/26 01:01:09;;;;;;;6.03;5.53;;;;;;;14.62;82.98;96292.88;5014176;28;20280;-86
2023/09/26 01:03:38;;;;;;;7.13;6.00;;;;;;;14.69;82.62;96280.75;5029052;28;20240;-85
2023/09/26 01:06:05;;;;;;;6.93;6.00;;;;;;;14.69;82.41;96269.59;5026802;28;20198;-85
2023/09/26 01:08:31;;;;;;;7.88;5.97;;;;;;;14.69;82.29;96261.81;5027494;28;20213;-86
2023/09/26 01:11:04;;;;;;;6.05;5.45;;;;;;;14.68;82.52;96271.38;5011813;28;20215;-85
2023/09/26 01:13:31;;;;;;;7.55;5.97;;;;;;;14.71;82.03;96260.63;5009254;28;20245;-85
2023/09/26 01:15:57;;;;;;;7.35;5.55;;;;;;;14.69;82.15;96267.78;5009115;28;20202;-86
2023/09/26 01:18:24;;;;;;;5.53;5.03;;;;;;;14.75;82.14;96261.88;5048766;28;20197;-85
2023/09/26 01:20:53;;;;;;;6.57;5.88;;;;;;;14.67;82.55;96271.56;5038207;28;20199;-85
2023/09/26 01:23:26;;;;;;;6.07;5.45;;;;;;;14.71;82.59;96278.78;5016439;28;20214;-85
2023/09/26 01:25:55;;;;;;;5.53;5.10;;;;;;;14.76;82.01;96270.47;5022390;28;20191;-86
2023/09/26 01:28:22;;;;;;;6.13;5.53;;;;;;;14.77;81.77;96257.31;5028479;28;20202;-85
2023/09/26 01:30:48;;;;;;;6.13;5.53;;;;;;;14.79;81.58;96262.31;5011623;28;20226;-85
2023/09/26 01:33:16;;;;;;;7.53;5.82;;;;;;;14.81;81.43;96255.16;5008494;28;20223;-85
2023/09/26 01:35:44;;;;;;;7.32;5.63;;;;;;;14.86;81.23;96255.38;5008595;28;20202;-85
2023/09/26 01:38:12;;;;;;;6.57;5.40;;;;;;;14.85;81.07;96249.38;5008115;28;20210;-85
2023/09/26 01:40:40;;;;;;;6.93;5.13;;;;;;;14.92;80.94;96243.47;5025124;28;20195;-85
2023/09/26 01:43:08;;;;;;;6.75;5.60;;;;;;;14.99;80.34;96231.38;5024465;28;20707;-86
2023/09/26 01:45:35;;;;;;;7.53;5.53;;;;;;;14.98;79.64;96209.00;5007841;28;20203;-85
2023/09/26 01:48:04;;;;;;;6.43;5.25;;;;;;;14.98;79.34;96209.00;5008679;28;20715;-85
2023/09/26 01:50:39;;;;;;;7.10;5.60;;;;;;;14.84;79.32;96211.47;5008584;28;20273;-85
2023/09/26 01:53:06;;;;;;;6.68;5.57;;;;;;;14.80;79.61;96214.66;5008551;28;20218;-86
2023/09/26 01:55:32;;;;;;;6.85;5.72;;;;;;;14.78;79.61;96221.81;5024744;28;20190;-86
2023/09/26 01:57:58;;;;;;;5.63;5.05;;;;;;;14.77;79.82;96220.22;5026825;28;20205;-85
2023/09/26 02:00:29;;;;;;;5.22;4.72;;;;;;;14.78;79.43;96216.63;5028953;28;21755;-85
2023/09/26 02:03:02;;;;;;;5.85;5.10;;;;;;;14.69;79.89;96220.34;5024045;28;20572;-86
2023/09/26 02:05:28;;;;;;;5.40;4.90;;;;;;;14.69;79.92;96223.72;5010081;28;20203;-87
2023/09/26 02:07:55;;;;;;;5.22;4.53;;;;;;;14.70;80.20;96217.56;5012333;28;20205;-86
2023/09/26 02:10:22;;;;;;;5.32;4.60;;;;;;;14.77;80.07;96222.81;5011991;28;20227;-86
2023/09/26 02:12:51;;;;;;;5.85;5.20;;;;;;;14.75;79.90;96219.59;5029510;28;20233;-85
2023/09/26 02:15:27;;;;;;;5.28;4.78;;;;;;;14.68;79.83;96216.94;5030799;28;20209;-86
2023/09/26 02:17:54;;;;;;;4.75;4.35;;;;;;;14.64;79.95;96215.69;5039343;28;20213;-87
2023/09/26 02:20:21;;;;;;;5.22;4.70;;;;;;;14.67;79.89;96219.72;5011392;28;20229;-85
2023/09/26 02:22:49;;;;;;;5.10;4.60;;;;;;;14.66;79.63;96213.72;5011176;28;20203;-86
2023/09/26 02:25:18;;;;;;;5.57;4.63;;;;;;;14.62;79.69;96215.13;5011246;28;20640;-85
2023/09/26 02:27:51;;;;;;;5.50;5.00;;;;;;;14.46;81.07;96233.47;5020250;28;20206;-86
2023/09/26 02:30:21;;;;;;;5.22;4.65;;;;;;;14.33;81.41;96241.88;5028613;28;20222;-85
2023/09/26 02:32:49;;;;;;;5.45;4.70;;;;;;;14.36;81.28;96249.31;5019429;28;20199;-86
2023/09/26 02:35:18;;;;;;;5.68;5.18;;;;;;;14.40;80.60;96239.38;5017979;28;20186;-85
2023/09/26 02:37:49;;;;;;;5.93;5.40;;;;;;;14.38;80.74;96238.75;5030536;28;20198;-85
2023/09/26 02:40:15;;;;;;;5.88;5.13;;;;;;;14.33;80.87;96241.09;5031245;28;20202;-85
2023/09/26 02:42:44;;;;;;;5.80;5.13;;;;;;;14.27;81.27;96242.59;5025241;28;20209;-85
2023/09/26 02:45:11;;;;;;;5.20;4.70;;;;;;;14.22;81.56;96247.56;5030432;28;20301;-85
2023/09/26 02:47:38;;;;;;;4.90;4.50;;;;;;;14.34;81.41;96250.47;5031371;28;20287;-86
2023/09/26 02:50:15;;;;;;;4.90;4.40;;;;;;;14.37;80.77;96243.13;5019234;28;20214;-86
2023/09/26 02:52:43;;;;;;;4.90;4.50;;;;;;;14.37;80.32;96231.97;5011065;28;20205;-85
2023/09/26 02:55:10;;;;;;;5.00;4.60;;;;;;;14.41;79.94;96215.91;5010782;28;20214;-86
2023/09/26 02:57:36;;;;;;;5.20;4.70;;;;;;;14.44;79.77;96217.31;5010837;28;20210;-86
2023/09/26 03:00:15;;;;;;;4.68;4.15;;;;;;;14.46;79.42;96198.00;5019360;28;20200;-86
2023/09/26 03:02:42;;;;;;;4.82;4.38;;;;;;;14.43;79.48;96200.19;5013912;28;20198;-86
2023/09/26 03:05:11;;;;;;;4.75;4.35;;;;;;;14.32;79.25;96198.84;5029093;28;20578;-86
2023/09/26 03:07:38;;;;;;;6.88;5.03;;;;;;;14.17;80.16;96205.84;5010608;28;20195;-86
2023/09/26 03:10:05;;;;;;;4.90;4.43;;;;;;;14.18;80.12;96207.47;5010963;28;20238;-86
2023/09/26 03:12:34;;;;;;;5.97;4.57;;;;;;;14.13;80.41;96202.81;5011561;28;20622;-86
2023/09/26 03:15:02;;;;;;;5.10;4.32;;;;;;;14.13;79.88;96189.06;5010483;28;20203;-85
2023/09/26 03:17:28;;;;;;;4.97;4.47;;;;;;;14.14;79.84;96183.72;5030095;28;20292;-86
2023/09/26 03:19:55;;;;;;;4.93;4.53;;;;;;;14.18;79.38;96171.22;5022965;28;20191;-85
2023/09/26 03:22:23;;;;;;;5.35;4.80;;;;;;;14.16;79.51;96180.94;5010047;28;20203;-86
2023/09/26 03:24:49;;;;;;;5.25;4.68;;;;;;;14.15;79.62;96181.94;5009714;28;20230;-86
2023/09/26 03:27:16;;;;;;;4.68;4.00;;;;;;;14.19;79.83;96185.75;5010132;28;20206;-86
2023/09/26 03:29:50;;;;;;;5.68;5.00;;;;;;;14.07;80.36;96195.78;5018363;28;20223;-85
2023/09/26 03:32:16;;;;;;;4.95;4.55;;;;;;;14.03;80.45;96188.59;5023528;28;20659;-86
2023/09/26 03:34:43;;;;;;;5.15;4.65;;;;;;;14.03;80.80;96201.53;5028443;28;20226;-85
2023/09/26 03:37:09;;;;;;;5.75;5.15;;;;;;;13.98;80.99;96201.25;5009489;28;20210;-85
2023/09/26 03:39:37;;;;;;;5.50;5.10;;;;;;;14.03;80.67;96197.16;5010026;28;20226;-86
2023/09/26 03:42:04;;;;;;;5.65;5.15;;;;;;;14.08;80.24;96192.22;5009849;28;20213;-86
2023/09/26 03:44:34;;;;;;;4.97;4.35;;;;;;;14.06;80.16;96188.19;5009861;28;20623;-85
2023/09/26 03:47:00;;;;;;;5.30;4.80;;;;;;;14.15;79.72;96189.69;5010173;28;20195;-86
2023/09/26 03:49:26;;;;;;;5.15;4.75;;;;;;;14.16;79.93;96188.72;5026984;28;20221;-86
2023/09/26 03:51:53;;;;;;;5.28;4.78;;;;;;;14.18;79.38;96184.16;5028813;28;20198;-85
2023/09/26 03:54:20;;;;;;;14.95;12.68;;;;;;;14.14;79.99;96188.09;5029407;28;20226;-86
2023/09/26 03:56:47;;;;;;;13.15;11.95;;;;;;;14.18;80.01;96184.97;5016574;28;20218;-86
2023/09/26 03:59:20;;;;;;;9.32;5.72;;;;;;;14.27;79.59;96175.25;5015276;28;20206;-85
2023/09/26 04:01:47;;;;;;;5.68;5.10;;;;;;;14.20;79.31;96176.19;5014526;28;20191;-86
2023/09/26 04:04:13;;;;;;;6.10;5.60;;;;;;;14.20;79.25;96171.03;5015172;28;20302;-86
2023/09/26 04:06:40;;;;;;;5.38;4.88;;;;;;;14.13;79.40;96169.16;5029033;28;20206;-85
2023/09/26 04:09:07;;;;;;;5.82;5.32;;;;;;;14.01;79.44;96177.59;5029445;28;20198;-86
2023/09/26 04:11:33;;;;;;;5.57;5.07;;;;;;;13.97;79.80;96178.94;5029141;28;20245;-85
2023/09/26 04:14:06;;;;;;;6.03;5.53;;;;;;;13.99;79.93;96187.34;5028855;28;20222;-85
2023/09/26 04:16:33;;;;;;;5.35;4.95;;;;;;;14.01;79.95;96193.94;5029313;28;20197;-85
2023/09/26 04:18:59;;;;;;;6.57;5.82;;;;;;;13.88;81.36;96216.28;5049000;28;20236;-85
2023/09/26 04:21:25;;;;;;;6.40;5.88;;;;;;;13.75;82.18;96232.44;5026793;28;20206;-85
2023/09/26 04:23:52;;;;;;;5.85;5.32;;;;;;;13.83;81.66;96230.59;5022243;28;20223;-85
2023/09/26 04:26:18;;;;;;;6.53;5.88;;;;;;;13.88;81.05;96219.66;5018275;28;20675;-85
2023/09/26 04:28:48;;;;;;;6.45;5.03;;;;;;;13.88;81.26;96211.91;5017060;28;20199;-85
2023/09/26 04:31:17;;;;;;;5.75;5.07;;;;;;;13.95;80.62;96210.19;5026968;28;20221;-86
2023/09/26 04:33:43;;;;;;;5.25;4.75;;;;;;;13.96;80.13;96188.50;5028230;28;20292;-86
2023/09/26 04:36:10;;;;;;;5.68;5.18;;;;;;;13.94;80.02;96195.66;5026571;28;20214;-85
2023/09/26 04:38:39;;;;;;;6.40;5.30;;;;;;;13.89;80.09;96194.56;5023547;28;20205;-87
2023/09/26 04:41:06;;;;;;;5.60;5.05;;;;;;;13.83;80.33;96194.34;5011119;28;20698;-86
2023/09/26 04:43:35;;;;;;;6.60;4.97;;;;;;;13.71;80.57;96188.00;5018611;28;20221;-85
2023/09/26 04:46:02;;;;;;;5.20;4.70;;;;;;;13.72;80.52;96197.38;5028191;28;20194;-85
2023/09/26 04:48:30;;;;;;;4.93;4.50;;;;;;;13.75;80.52;96199.59;5024555;28;20202;-85
2023/09/26 04:50:57;;;;;;;7.43;5.00;;;;;;;13.80;79.52;96183.53;5016154;28;20218;-86
2023/09/26 04:53:23;;;;;;;6.88;5.65;;;;;;;13.74;79.23;96160.97;5020239;28;20245;-85
2023/09/26 04:55:53;;;;;;;6.60;5.43;;;;;;;13.60;79.92;96175.53;5023502;28;20214;-86
2023/09/26 04:58:23;;;;;;;6.47;5.75;;;;;;;13.60;80.26;96188.47;5008649;28;20205;-86
2023/09/26 05:00:49;;;;;;;5.83;5.30;;;;;;;13.71;79.48;96176.84;5009035;28;20583;-85
2023/09/26 05:03:15;;;;;;;6.30;5.47;;;;;;;13.55;79.78;96183.03;5009055;28;20262;-85
2023/09/26 05:05:45;;;;;;;6.93;5.90;;;;;;;13.53;79.87;96177.22;5009065;28;20358;-86
2023/09/26 05:08:11;;;;;;;6.27;5.67;;;;;;;13.52;79.86;96178.22;5018701;28;20284;-85
2023/09/26 05:10:48;;;;;;;8.43;6.93;;;;;;;13.49;80.21;96186.31;5020493;28;20233;-86
2023/09/26 05:13:15;;;;;;;6.33;5.73;;;;;;;13.49;80.80;96200.06;5029578;28;20298;-85
2023/09/26 05:15:42;;;;;;;5.33;4.83;;;;;;;13.55;80.51;96206.31;5034079;28;20210;-85
2023/09/26 05:18:08;;;;;;;6.33;5.50;;;;;;;13.61;80.63;96205.59;5030069;28;20203;-85
2023/09/26 05:20:36;;;;;;;7.00;5.63;;;;;;;13.65;80.56;96204.28;5033895;28;20195;-86
2023/09/26 05:23:04;;;;;;;6.20;5.70;;;;;;;13.51;81.08;96209.44;5033953;28;20221;-85
2023/09/26 05:25:35;;;;;;;6.87;5.67;;;;;;;13.60;80.81;96211.75;5027875;28;20204;-86
2023/09/26 05:28:01;;;;;;;6.10;5.60;;;;;;;13.66;80.93;96215.44;5026505;28;20199;-86
2023/09/26 05:30:28;;;;;;;6.00;5.50;;;;;;;13.67;80.67;96215.22;5028919;28;20233;-85
2023/09/26 05:32:54;;;;;;;6.80;6.10;;;;;;;13.62;81.04;96219.34;5029026;28;20230;-87
2023/09/26 05:35:21;;;;;;;6.50;5.55;;;;;;;13.66;81.03;96218.78;5029456;28;20198;-89
2023/09/26 05:37:55;;;;;;;6.97;5.67;;;;;;;13.77;80.84;96214.97;5028249;28;20423;-86
2023/09/26 05:40:24;;;;;;;6.23;5.63;;;;;;;13.81;80.95;96224.78;5036126;28;20208;-88
2023/09/26 05:42:50;;;;;;;9.03;6.13;;;;;;;13.92;80.58;96218.31;5031062;28;20217;-88
2023/09/26 05:45:17;;;;;;;6.65;5.95;;;;;;;13.99;80.18;96214.03;5016266;28;20203;-88
2023/09/26 05:47:44;;;;;;;8.23;5.80;;;;;;;14.01;80.62;96219.84;5015363;28;20650;-86
2023/09/26 05:50:11;;;;;;;8.00;6.00;;;;;;;13.99;80.55;96221.81;5032082;28;20233;-86
2023/09/26 05:52:45;;;;;;;9.47;6.57;;;;;;;13.97;80.20;96210.81;5031450;28;20233;-86
2023/09/26 05:55:12;;;;;;;16.08;13.90;;;;;;;13.98;80.27;96215.00;5020753;28;20201;-86
2023/09/26 05:57:40;;;;;;;9.90;9.00;;;;;;;14.01;80.37;96224.22;5020983;28;20202;-85
2023/09/26 06:00:12;;;;;;;7.25;6.50;;;;;;;14.03;80.47;96220.47;5031386;28;20202;-86
2023/09/26 06:02:39;;;;;;;6.90;6.20;;;;;;;13.99;80.94;96214.03;5031443;28;20210;-86
2023/09/26 06:05:11;;;;;;;6.68;6.07;;;;;;;14.00;81.30;96233.75;5031562;28;20206;-86
2023/09/26 06:07:37;;;;;;;6.63;6.00;;;;;;;14.06;81.53;96234.81;5030745;28;20260;-85
2023/09/26 06:10:05;;;;;;;7.38;5.57;;;;;;;14.11;81.38;96240.25;5031621;28;20690;-85
2023/09/26 06:12:32;;;;;;;6.70;6.10;;;;;;;14.11;81.74;96243.63;5029934;28;20261;-85
2023/09/26 06:15:00;;;;;;;6.40;5.80;;;;;;;14.15;81.36;96242.28;5029128;28;20206;-85
2023/09/26 06:17:35;;;;;;;6.85;5.32;;;;;;;14.23;81.38;96243.97;5029007;28;20207;-85
2023/09/26 06:20:02;;;;;;;5.88;5.30;;;;;;;14.34;81.23;96240.91;5030893;28;20198;-85
2023/09/26 06:22:29;;;;;;;6.45;5.85;;;;;;;14.44;80.92;96236.25;5030593;28;20768;-85
2023/09/26 06:24:58;;;;;;;40.05;35.58;;;;;;;14.54;81.31;96250.69;5030965;28;20245;-85
2023/09/26 06:27:24;;;;;;;11.63;10.43;;;;;;;14.71;80.50;96232.13;5031345;28;20206;-86
2023/09/26 06:29:56;;;;;;;5.93;5.43;;;;;;;14.90;79.91;96224.69;5019856;28;20203;-85
2023/09/26 06:32:24;;;;;;;6.95;5.28;;;;;;;15.01;80.04;96221.59;5032073;28;20609;-84
2023/09/26 06:34:51;;;;;;;6.05;5.47;;;;;;;15.13;79.11;96202.75;5032425;28;20313;-85
2023/09/26 06:37:17;;;;;;;5.32;4.82;;;;;;;15.23;78.90;96197.19;5019928;28;20191;-85
2023/09/26 06:39:43;;;;;;;5.35;4.70;;;;;;;15.40;78.31;96180.34;5011935;28;20199;-85
2023/09/26 06:42:10;;;;;;;5.85;5.00;;;;;;;15.50;77.55;96170.41;5012456;28;20199;-85
2023/09/26 06:44:42;;;;;;;4.95;4.55;;;;;;;15.60;77.26;96151.09;5030232;28;20226;-85
2023/09/26 06:47:08;;;;;;;5.93;5.03;;;;;;;15.73;76.61;96145.97;5030009;28;20217;-85
2023/09/26 06:49:36;;;;;;;5.88;5.28;;;;;;;15.85;75.82;96134.81;5030047;28;20194;-85
2023/09/26 06:52:03;;;;;;;5.63;5.13;;;;;;;16.02;75.44;96124.06;5030272;28;20217;-85
2023/09/26 06:54:32;;;;;;;5.90;5.32;;;;;;;16.22;74.80;96111.91;5015449;28;20704;-85
2023/09/26 06:57:02;;;;;;;5.30;4.80;;;;;;;16.35;74.44;96103.34;5011183;28;20214;-85
2023/09/26 06:59:29;;;;;;;6.05;4.90;;;;;;;16.54;73.60;96085.16;5009981;28;20297;-85
2023/09/26 07:01:55;;;;;;;6.00;5.10;;;;;;;16.66;72.55;96063.75;5019341;28;20232;-85
2023/09/26 07:04:22;;;;;;;6.63;5.13;;;;;;;16.90;72.21;96055.31;5024748;28;20214;-85
2023/09/26 07:06:49;;;;;;;11.15;9.13;;;;;;;17.09;71.89;96049.25;5011612;28;20202;-86
2023/09/26 07:09:16;;;;;;;11.82;10.60;;;;;;;17.11;72.26;96060.25;5011846;28;20229;-85
2023/09/26 07:11:43;;;;;;;9.30;8.23;;;;;;;17.29;71.79;96048.38;5011071;28;20704;-86
2023/09/26 07:14:12;;;;;;;17.13;15.32;;;;;;;17.38;71.39;96037.50;5013231;28;20762;-85
2023/09/26 07:16:39;;;;;;;6.90;6.32;;;;;;;17.48;71.64;96047.50;5037139;28;20766;-85
2023/09/26 07:19:05;;;;;;;6.03;5.43;;;;;;;17.41;71.55;96042.31;5030779;28;20194;-85
2023/09/26 07:21:32;;;;;;;5.90;5.30;;;;;;;17.44;71.60;96048.91;5030657;28;20289;-85
2023/09/26 07:24:00;;;;;;;5.95;5.35;;;;;;;17.45;71.54;96061.72;5029360;28;20232;-85
2023/09/26 07:26:26;;;;;;;7.97;4.63;;;;;;;17.52;71.41;96046.84;5010377;28;20216;-84
2023/09/26 07:28:53;;;;;;;5.80;5.30;;;;;;;17.68;70.81;96024.78;5010219;28;20203;-85
2023/09/26 07:31:23;;;;;;;6.68;5.28;;;;;;;17.83;70.31;96021.88;5010479;28;20429;-85
2023/09/26 07:33:50;;;;;;;6.95;5.05;;;;;;;17.93;70.30;96028.19;5014197;28;20233;-85
2023/09/26 07:36:17;;;;;;;7.88;5.90;;;;;;;18.04;69.93;96007.69;5022452;28;20213;-85
2023/09/26 07:38:44;;;;;;;6.13;5.43;;;;;;;18.31;69.98;96019.50;5024475;28;20207;-85
2023/09/26 07:41:12;;;;;;;6.35;5.32;;;;;;;18.66;69.01;95996.34;5010192;28;20249;-85
2023/09/26 07:43:40;;;;;;;5.93;5.32;;;;;;;18.82;67.86;95969.66;5023093;28;20631;-86
2023/09/26 07:46:09;;;;;;;6.97;5.05;;;;;;;19.13;67.63;95958.25;5018890;28;20301;-85
2023/09/26 07:48:37;;;;;;;5.63;5.13;;;;;;;19.37;66.11;95906.91;5009958;28;20691;-85
2023/09/26 07:51:04;;;;;;;5.50;5.00;;;;;;;19.62;65.24;95891.09;5025979;28;20237;-85
2023/09/26 07:53:33;;;;;;;5.78;5.28;;;;;;;19.91;65.11;95871.09;5022563;28;20722;-85
2023/09/26 07:56:03;;;;;;;5.88;5.05;;;;;;;20.11;64.66;95863.72;5010197;28;20660;-85
2023/09/26 07:58:33;;;;;;;6.68;5.57;;;;;;;20.26;62.74;95796.03;5010585;28;20210;-85
2023/09/26 08:01:06;;;;;;;7.28;5.57;;;;;;;20.43;63.07;95817.06;5010124;28;20203;-85
2023/09/26 08:03:32;;;;;;;5.82;5.22;;;;;;;20.55;62.11;95780.41;5009207;28;20246;-85
2023/09/26 08:06:00;;;;;;;6.22;5.55;;;;;;;20.59;61.55;95753.50;5013201;28;20206;-86
2023/09/26 08:08:27;;;;;;;7.68;5.20;;;;;;;20.82;61.80;95776.16;5028387;28;20248;-85
2023/09/26 08:10:53;;;;;;;6.35;5.68;;;;;;;21.08;61.25;95759.06;5021498;28;20252;-85
2023/09/26 08:13:20;;;;;;;8.07;5.75;;;;;;;21.17;60.58;95728.81;5013135;28;20218;-85
2023/09/26 08:15:48;;;;;;;7.88;5.55;;;;;;;21.32;60.26;95712.59;5009778;28;20194;-85
2023/09/26 08:18:14;;;;;;;7.00;6.40;;;;;;;21.54;60.19;95720.50;5047413;28;20193;-86
2023/09/26 08:20:46;;;;;;;8.48;7.68;;;;;;;21.62;59.98;95702.50;5048575;28;20206;-86
2023/09/26 08:23:13;;;;;;;9.80;8.82;;;;;;;21.75;59.10;95679.59;5030013;28;20298;-85
2023/09/26 08:25:39;;;;;;;7.82;6.50;;;;;;;21.83;59.04;95653.75;5020131;28;20253;-85
2023/09/26 08:28:06;;;;;;;6.90;6.30;;;;;;;21.84;58.30;95630.94;5009694;28;20581;-85
2023/09/26 08:30:34;;;;;;;7.90;7.20;;;;;;;22.07;58.37;95632.53;5009380;28;20257;-86
2023/09/26 08:33:02;;;;;;;8.23;7.43;;;;;;;22.15;57.89;95613.72;5009762;28;20735;-86
2023/09/26 08:35:28;;;;;;;8.93;8.02;;;;;;;22.17;57.40;95596.69;5009082;28;20211;-85
2023/09/26 08:37:55;;;;;;;9.07;8.30;;;;;;;22.27;57.68;95607.28;5023311;28;20205;-85
2023/09/26 08:40:25;;;;;;;9.52;8.65;;;;;;;22.18;59.10;95645.50;5026714;28;20292;-86
2023/09/26 08:42:57;;;;;;;9.00;8.20;;;;;;;22.28;58.19;95626.44;5028345;28;20552;-85
2023/09/26 08:45:25;;;;;;;10.73;9.73;;;;;;;22.36;58.20;95594.50;5011618;28;20202;-86
2023/09/26 08:47:54;;;;;;;10.95;9.90;;;;;;;22.56;57.74;95599.13;5009049;28;20206;-86
2023/09/26 08:50:22;;;;;;;11.93;10.82;;;;;;;22.55;57.42;95590.44;5010806;28;20690;-85
2023/09/26 08:52:49;;;;;;;12.10;11.00;;;;;;;22.36;57.51;95586.63;5026802;28;20222;-85
2023/09/26 08:55:19;;;;;;;12.85;11.75;;;;;;;21.97;58.45;95617.44;5019588;28;20297;-86
2023/09/26 08:57:46;;;;;;;14.70;12.20;;;;;;;21.70;59.51;95659.38;5028214;28;20205;-85
2023/09/26 09:00:13;;;;;;;12.73;11.50;;;;;;;21.61;60.28;95687.03;5018521;28;20664;-85
2023/09/26 09:02:40;;;;;;;14.38;13.13;;;;;;;21.70;60.00;95701.31;5008989;28;20206;-85
2023/09/26 09:05:08;;;;;;;14.77;13.15;;;;;;;21.63;60.06;95688.38;5008847;28;20583;-84
2023/09/26 09:07:38;;;;;;;15.90;14.32;;;;;;;21.59;59.92;95695.13;5008478;28;20217;-85
2023/09/26 09:10:10;;;;;;;16.45;14.88;;;;;;;21.75;60.23;95717.06;5009406;28;20206;-85
2023/09/26 09:12:40;;;;;;;16.13;14.63;;;;;;;21.88;59.80;95682.66;5026172;28;20226;-85
2023/09/26 09:15:20;;;;;;;15.73;14.32;;;;;;;22.18;58.83;95660.44;5030993;28;20256;-86
2023/09/26 09:17:48;;;;;;;15.65;14.25;;;;;;;22.32;57.81;95611.78;5047850;28;20200;-85
2023/09/26 09:20:32;;;;;;;15.82;14.32;;;;;;;22.35;57.76;95577.16;5052451;28;20224;-85
2023/09/26 09:23:01;;;;;;;17.27;14.13;;;;;;;22.47;58.25;95619.78;5012448;28;20590;-85
2023/09/26 09:25:33;;;;;;;14.35;13.05;;;;;;;22.57;58.02;95611.19;5012413;28;20249;-85
2023/09/26 09:28:00;;;;;;;14.80;13.38;;;;;;;22.63;58.10;95607.56;5026957;28;20217;-85
2023/09/26 09:33:37;;;;;;;15.07;13.68;;;;;;;22.54;57.58;95572.31;5030628;28;20238;-85
2023/09/26 09:36:07;;;;;;;15.23;13.63;;;;;;;22.41;57.53;95563.06;5032106;28;20198;-85
2023/09/26 09:38:35;;;;;;;20.63;18.15;;;;;;;22.41;57.57;95570.94;5031914;28;20228;-85
2023/09/26 09:41:04;;;;;;;20.65;18.80;;;;;;;22.58;57.30;95547.16;5031954;28;20208;-86
2023/09/26 09:43:36;;;;;;;15.15;13.77;;;;;;;22.71;57.21;95559.84;5024382;28;20225;-84
2023/09/26 09:46:06;;;;;;;13.65;12.35;;;;;;;22.79;58.02;95587.50;5021792;28;20221;-86
2023/09/26 09:48:40;;;;;;;13.98;11.35;;;;;;;22.84;57.04;95535.81;5012525;28;20210;-84
2023/09/26 09:51:11;;;;;;;13.95;12.70;;;;;;;22.79;57.66;95569.91;5013290;28;20811;-85
2023/09/26 09:53:42;;;;;;;17.63;13.25;;;;;;;22.57;58.09;95583.13;5013612;28;20226;-85
2023/09/26 09:56:09;;;;;;;12.80;11.60;;;;;;;22.56;59.07;95630.59;5012909;28;20217;-85
2023/09/26 09:58:40;;;;;;;14.43;13.13;;;;;;;22.54;59.08;95620.34;5013349;28;20709;-85
2023/09/26 10:01:07;;;;;;;12.90;11.65;;;;;;;22.56;59.17;95630.59;5029925;28;20206;-85
2023/09/26 10:03:38;;;;;;;12.82;11.63;;;;;;;22.43;59.36;95636.28;5023988;28;20568;-84
2023/09/26 10:06:08;;;;;;;11.98;10.82;;;;;;;22.52;59.11;95622.44;5034786;28;20252;-84
2023/09/26 10:08:37;;;;;;;11.20;10.30;;;;;;;22.57;59.08;95625.09;5034489;28;20222;-84
2023/09/26 10:11:06;;;;;;;12.45;11.20;;;;;;;22.61;59.20;95622.78;5034296;28;20260;-85
2023/09/26 10:13:33;;;;;;;11.20;10.20;;;;;;;22.68;59.02;95621.53;5028523;28;20322;-84
2023/09/26 10:16:11;;;;;;;15.65;14.13;;;;;;;22.79;58.83;95613.75;5029830;28;20198;-86
2023/09/26 10:18:45;;;;;;;22.30;20.23;;;;;;;22.78;58.79;95606.91;5033439;28;20206;-85
2023/09/26 10:21:25;;;;;;;14.80;13.13;;;;;;;22.79;58.30;95583.03;5031901;28;20283;-85
2023/09/26 10:24:26;;;;;;;12.65;11.50;;;;;;;22.64;58.28;95569.78;5013396;28;20222;-84
2023/09/26 10:26:54;;;;;;;10.52;9.55;;;;;;;22.46;58.75;95599.06;5013785;28;20640;-85
2023/09/26 10:29:25;;;;;;;12.68;11.38;;;;;;;22.34;58.95;95601.81;5013279;28;20210;-85
2023/09/26 10:31:54;;;;;;;11.52;10.38;;;;;;;22.28;59.45;95629.06;5021113;28;20202;-85
2023/09/26 10:34:23;;;;;;;10.73;9.63;;;;;;;22.32;59.45;95630.94;5031186;28;20248;-84
2023/09/26 10:36:49;;;;;;;10.27;9.27;;;;;;;22.48;60.12;95658.13;5020066;28;20195;-85
2023/09/26 10:39:16;;;;;;;10.25;9.45;;;;;;;22.51;59.16;95610.38;5024513;28;20228;-85
2023/09/26 10:41:42;;;;;;;9.70;8.90;;;;;;;22.50;58.95;95608.81;5028241;28;20575;-85
2023/09/26 10:44:10;;;;;;;9.70;8.70;;;;;;;22.53;59.29;95625.84;5028898;28;20218;-84
2023/09/26 10:46:36;;;;;;;9.30;8.45;;;;;;;22.46;58.59;95594.59;5031594;28;20228;-85
2023/09/26 10:49:03;;;;;;;10.25;9.30;;;;;;;22.57;58.58;95575.25;5028255;28;20209;-84
2023/09/26 10:51:31;;;;;;;10.57;9.52;;;;;;;22.47;58.70;95567.31;5024914;28;20461;-85
2023/09/26 10:53:58;;;;;;;9.93;9.02;;;;;;;22.52;58.64;95582.28;5028367;28;20309;-85
2023/09/26 10:56:24;;;;;;;8.60;7.82;;;;;;;22.59;59.91;95630.09;5027255;28;20226;-85
2023/09/26 10:58:54;;;;;;;9.68;8.68;;;;;;;22.57;58.56;95591.00;5022037;28;20612;-85
2023/09/26 11:01:36;;;;;;;9.15;8.25;;;;;;;22.51;58.96;95610.38;5013078;28;20210;-85
2023/09/26 11:04:02;;;;;;;16.40;14.80;;;;;;;22.35;59.43;95619.94;5021599;28;20218;-85
2023/09/26 11:06:29;;;;;;;10.30;9.40;;;;;;;22.27;59.60;95637.97;5032343;28;20226;-85
2023/09/26 11:08:55;;;;;;;11.85;10.65;;;;;;;22.24;59.68;95643.72;5030184;28;20209;-83
2023/09/26 11:11:22;;;;;;;10.48;9.40;;;;;;;22.18;60.69;95655.97;5031571;28;20210;-84
2023/09/26 11:14:07;;;;;;;11.80;10.10;;;;;;;22.15;60.84;95690.56;5069169;22;20241;-84
2023/09/26 11:16:35;;;;;;;12.50;10.98;;;;;;;22.17;61.48;95717.34;5033114;28;20209;-84
2023/09/26 11:19:01;;;;;;;9.75;8.75;;;;;;;22.31;61.16;95710.69;5027581;28;20245;-84
2023/09/26 11:21:40;;;;;;;12.75;11.45;;;;;;;22.26;59.78;95621.44;5027029;28;20675;-84
2023/09/26 11:24:20;;;;;;;8.85;7.95;;;;;;;22.36;59.63;95629.38;5026199;28;20232;-83
2023/09/26 11:26:48;;;;;;;8.23;7.53;;;;;;;22.39;59.57;95607.13;5033332;28;20206;-83
2023/09/26 11:29:19;;;;;;;10.00;8.20;;;;;;;22.50;59.28;95592.25;5031315;28;20908;-85
2023/09/26 11:31:48;;;;;;;8.20;7.40;;;;;;;22.59;59.34;95588.91;5024744;28;20262;-85
2023/09/26 11:34:16;;;;;;;8.25;7.45;;;;;;;22.45;59.35;95582.50;5013197;28;20262;-85
2023/09/26 11:36:43;;;;;;;6.68;6.18;;;;;;;22.44;60.26;95636.03;5001415;28;20209;-84
2023/09/26 11:39:15;;;;;;;7.05;6.22;;;;;;;22.63;60.23;95628.56;4992770;28;20199;-86